Time;durP1;ratioP1;P1;durP2;ratioP2;P2;SDS_P1;SDS_P2;PMS_P1;PMS_P2;Temp;Humidity;BMP_temperature;BMP_pressure;BME280_temperature;BME280_humidity;BME280_pressure;Samples;Min_cycle;Max_cycle;Signal;HPM_P1;HPM_P2
2023/01/23 00:32:52;;;;;;;27.10;14.40;;;;;;;0.34;92.81;101225.44;105141;1282;612687;-38
2023/01/23 00:35:20;;;;;;;24.30;14.50;;;;;;;0.66;91.02;101232.20;106424;1267;200840;-40
2023/01/23 00:37:47;;;;;;;22.70;15.30;;;;;;;0.54;91.32;101229.44;106683;1266;61276;-39
2023/01/23 00:40:14;;;;;;;27.90;14.80;;;;;;;0.52;91.67;101226.42;106748;1267;73592;-39
2023/01/23 00:42:41;;;;;;;24.90;14.60;;;;;;;0.49;91.60;101226.01;106710;1265;69300;-39
2023/01/23 00:45:09;;;;;;;27.70;15.40;;;;;;;0.41;91.35;101228.14;106726;1267;72829;-39
2023/01/23 00:47:36;;;;;;;26.10;14.10;;;;;;;0.38;91.28;101224.59;106752;1266;63712;-39
2023/01/23 00:50:04;;;;;;;27.80;14.60;;;;;;;0.40;90.48;101224.51;106716;1266;61481;-39
2023/01/23 00:52:31;;;;;;;26.10;14.80;;;;;;;0.36;90.02;101225.31;106732;1266;74360;-39
2023/01/23 00:54:58;;;;;;;27.70;16.70;;;;;;;0.30;90.01;101227.52;106714;1267;69434;-38
2023/01/23 00:57:26;;;;;;;28.20;15.80;;;;;;;0.22;89.63;101226.23;106718;1265;74785;-40
2023/01/23 00:59:53;;;;;;;27.20;15.80;;;;;;;0.19;89.15;101227.36;106750;1267;60658;-40
2023/01/23 01:02:21;;;;;;;26.70;16.00;;;;;;;0.15;88.89;101226.45;106773;1266;59596;-39
2023/01/23 01:04:48;;;;;;;28.00;16.20;;;;;;;0.11;89.37;101229.11;106731;1266;73542;-40
2023/01/23 01:07:15;;;;;;;25.80;16.00;;;;;;;0.12;89.52;101228.05;106705;1267;70120;-40
2023/01/23 01:09:42;;;;;;;29.30;16.00;;;;;;;0.16;89.36;101220.39;106689;1267;74737;-40
2023/01/23 01:12:09;;;;;;;31.00;16.50;;;;;;;0.18;88.98;101221.95;106645;1267;60707;-40
2023/01/23 01:14:37;;;;;;;34.10;18.90;;;;;;;0.16;88.91;101218.83;106618;1266;59480;-40
2023/01/23 01:17:04;;;;;;;30.80;17.00;;;;;;;0.14;89.17;101219.45;106626;1266;74531;-40
2023/01/23 01:19:31;;;;;;;34.00;17.40;;;;;;;0.19;89.34;101221.55;106564;1270;70496;-39
2023/01/23 01:21:58;;;;;;;27.40;16.60;;;;;;;0.29;88.97;101217.31;106602;1266;74029;-40
2023/01/23 01:24:25;;;;;;;40.70;17.50;;;;;;;0.33;88.85;101212.92;106603;1266;61302;-40
2023/01/23 01:26:52;;;;;;;32.90;17.20;;;;;;;0.32;88.69;101213.41;106650;1266;62624;-39
2023/01/23 01:29:22;;;;;;;26.40;17.00;;;;;;;0.26;88.67;101211.92;106664;1266;71543;-40
2023/01/23 01:31:49;;;;;;;29.50;16.10;;;;;;;0.27;88.57;101214.14;106619;1265;70136;-40
2023/01/23 01:34:18;;;;;;;32.90;17.30;;;;;;;0.33;88.26;101211.23;106617;1265;72929;-39
2023/01/23 01:36:45;;;;;;;44.00;17.90;;;;;;;0.30;88.09;101208.25;106647;1269;61151;-39
2023/01/23 01:39:12;;;;;;;29.80;17.40;;;;;;;0.26;88.24;101210.49;106743;1265;61718;-39
2023/01/23 01:41:40;;;;;;;28.40;17.10;;;;;;;0.22;88.13;101210.18;106728;1269;74451;-40
2023/01/23 01:44:17;;;;;;;28.90;16.40;;;;;;;0.23;88.04;101209.92;106619;1266;70197;-39
2023/01/23 01:46:45;;;;;;;32.50;17.90;;;;;;;0.24;88.09;101208.70;106631;1267;74241;-40
2023/01/23 01:49:32;;;;;;;31.50;17.50;;;;;;;0.24;88.39;101208.65;106740;1267;61076;-39
2023/01/23 01:52:05;;;;;;;27.40;15.50;;;;;;;0.25;88.46;101208.56;106723;1266;59720;-39
2023/01/23 01:54:38;;;;;;;24.90;15.10;;;;;;;0.29;88.08;101211.34;106655;1267;72798;-39
2023/01/23 01:57:10;;;;;;;26.30;15.60;;;;;;;0.31;88.12;101213.13;106751;1267;68605;-40
2023/01/23 01:59:45;;;;;;;27.30;15.00;;;;;;;0.28;87.92;101210.04;106682;1267;75127;-40
2023/01/23 02:02:19;;;;;;;20.20;12.50;;;;;;;0.25;87.82;101209.73;106610;1269;62614;-40
2023/01/23 02:04:48;;;;;;;22.40;13.20;;;;;;;0.28;87.81;101211.37;106698;1267;60035;-40
2023/01/23 02:07:30;;;;;;;23.50;13.60;;;;;;;0.28;87.93;101212.55;106696;1267;74484;-40
2023/01/23 02:09:57;;;;;;;23.70;13.00;;;;;;;0.28;87.76;101208.71;106496;1266;70874;-40
2023/01/23 02:12:25;;;;;;;22.60;13.10;;;;;;;0.28;87.83;101208.60;106634;1265;75091;-40
2023/01/23 02:14:53;;;;;;;22.50;13.10;;;;;;;0.35;87.80;101206.46;106634;1271;61278;-40
2023/01/23 02:17:20;;;;;;;22.90;13.60;;;;;;;0.37;87.80;101203.13;106623;1266;59572;-40
2023/01/23 02:20:24;;;;;;;23.60;13.30;;;;;;;0.35;87.61;101209.33;106651;1266;74378;-39
2023/01/23 02:22:58;;;;;;;22.40;12.30;;;;;;;0.30;87.80;101206.55;106665;1270;67808;-40
2023/01/23 02:25:43;;;;;;;22.20;12.40;;;;;;;0.32;87.73;101208.02;105849;1269;1003072;-40
2023/01/23 02:28:14;;;;;;;23.20;14.20;;;;;;;0.31;87.81;101207.52;106643;1267;59516;-39
2023/01/23 02:30:45;;;;;;;23.20;12.70;;;;;;;0.28;88.17;101207.37;106675;1267;61419;-39
2023/01/23 02:33:19;;;;;;;17.30;10.40;;;;;;;0.31;88.15;101206.03;106599;1265;74523;-40
2023/01/23 02:35:46;;;;;;;14.50;9.60;;;;;;;0.38;87.73;101212.16;106701;1266;67837;-40
2023/01/23 02:38:14;;;;;;;13.90;9.40;;;;;;;0.35;87.26;101216.55;106706;1266;71172;-40
2023/01/23 02:40:41;;;;;;;14.40;10.20;;;;;;;0.32;87.42;101222.44;106621;1268;60601;-40
2023/01/23 02:43:13;;;;;;;12.20;8.50;;;;;;;0.31;87.44;101221.23;106731;1270;59515;-40
2023/01/23 02:45:46;;;;;;;13.90;9.30;;;;;;;0.35;87.06;101221.13;106755;1266;74592;-40
2023/01/23 02:48:14;;;;;;;14.60;9.40;;;;;;;0.33;87.23;101225.43;106739;1266;67814;-40
2023/01/23 02:50:43;;;;;;;14.20;9.80;;;;;;;0.35;87.49;101222.73;106621;1267;74940;-40
2023/01/23 02:53:11;;;;;;;14.70;9.00;;;;;;;0.42;87.94;101223.23;106674;1267;62374;-39
2023/01/23 02:55:42;;;;;;;14.60;10.00;;;;;;;0.51;87.28;101221.49;106627;1267;61897;-40
2023/01/23 03:00:55;;;;;;;16.60;11.20;;;;;;;0.48;86.89;101227.33;106702;1265;69026;-40
2023/01/23 03:03:22;;;;;;;13.70;10.00;;;;;;;0.42;86.77;101227.26;106699;1267;73759;-40
2023/01/23 03:05:50;;;;;;;14.80;10.20;;;;;;;0.44;86.71;101226.79;106597;1269;60690;-40
2023/01/23 03:08:17;;;;;;;12.40;9.50;;;;;;;0.45;86.87;101228.23;106713;1267;59389;-40
2023/01/23 03:10:44;;;;;;;13.00;9.50;;;;;;;0.41;86.95;101226.83;106605;1266;73624;-40
2023/01/23 03:13:12;;;;;;;12.50;8.80;;;;;;;0.40;86.88;101221.94;106548;1267;70344;-40
2023/01/23 03:15:41;;;;;;;14.20;9.50;;;;;;;0.45;86.79;101224.67;106592;1267;73879;-39
2023/01/23 03:18:08;;;;;;;15.20;10.00;;;;;;;0.47;86.55;101222.36;106763;1266;59624;-40
2023/01/23 03:20:39;;;;;;;15.70;10.70;;;;;;;0.43;86.48;101216.11;106704;1266;60763;-41
2023/01/23 03:23:07;;;;;;;13.30;9.30;;;;;;;0.37;86.51;101214.83;106742;1266;75045;-41
2023/01/23 03:25:34;;;;;;;14.90;9.90;;;;;;;0.40;86.59;101216.88;106647;1265;67147;-39
2023/01/23 03:28:02;;;;;;;16.90;11.80;;;;;;;0.43;86.66;101216.55;106765;1265;72029;-39
2023/01/23 03:30:29;;;;;;;16.00;11.30;;;;;;;0.41;86.72;101219.60;106839;1267;59729;-39
2023/01/23 03:32:57;;;;;;;16.50;10.70;;;;;;;0.37;86.87;101224.69;106687;1266;60998;-39
2023/01/23 03:35:24;;;;;;;17.10;10.90;;;;;;;0.42;86.97;101225.86;106684;1266;72470;-39
2023/01/23 03:37:53;;;;;;;14.10;10.30;;;;;;;0.52;86.86;101227.27;106724;1265;70261;-40
2023/01/23 03:43:09;;;;;;;14.50;10.40;;;;;;;0.50;86.74;101221.75;106753;1266;60101;-40
2023/01/23 03:45:41;;;;;;;14.60;9.20;;;;;;;0.54;86.44;101236.75;106749;1267;59483;-40
2023/01/23 03:48:08;;;;;;;15.60;9.90;;;;;;;0.56;86.00;101237.04;106618;1266;74521;-40
2023/01/23 03:50:36;;;;;;;16.40;9.60;;;;;;;0.56;86.22;101237.48;104494;1266;1005006;-40
2023/01/23 03:53:03;;;;;;;15.10;9.90;;;;;;;0.52;86.07;101233.80;106692;1272;71940;-40
2023/01/23 03:55:30;;;;;;;15.50;9.60;;;;;;;0.49;85.98;101235.83;106623;1265;61721;-40
2023/01/23 03:57:57;;;;;;;13.70;9.10;;;;;;;0.53;86.06;101235.82;106775;1269;61142;-40
2023/01/23 04:00:28;;;;;;;13.70;9.60;;;;;;;0.58;86.15;101236.63;106754;1267;73486;-40
2023/01/23 04:02:57;;;;;;;16.90;11.00;;;;;;;0.59;86.20;101243.33;106763;1266;67966;-40
2023/01/23 04:05:25;;;;;;;14.30;10.10;;;;;;;0.59;86.20;101248.76;106586;1267;74344;-40
2023/01/23 04:07:52;;;;;;;15.10;10.10;;;;;;;0.63;86.20;101246.05;106673;1267;59893;-40
2023/01/23 04:10:21;;;;;;;13.40;9.30;;;;;;;0.71;85.77;101249.94;106676;1269;59427;-40
2023/01/23 04:12:52;;;;;;;13.30;9.90;;;;;;;0.70;85.50;101251.26;106654;1269;71787;-40
2023/01/23 04:15:20;;;;;;;16.00;10.30;;;;;;;0.64;85.47;101255.51;106608;1267;70210;-40
2023/01/23 04:17:48;;;;;;;18.20;10.30;;;;;;;0.58;85.62;101257.40;106664;1266;73302;-40
2023/01/23 04:20:16;;;;;;;14.80;10.40;;;;;;;0.55;85.21;101260.56;106749;1265;63409;-40
2023/01/23 04:22:43;;;;;;;15.60;10.30;;;;;;;0.58;85.59;101263.11;106761;1267;62082;-40
2023/01/23 04:25:10;;;;;;;17.00;11.10;;;;;;;0.57;85.59;101264.87;106746;1267;74125;-40
2023/01/23 04:27:38;;;;;;;15.50;10.10;;;;;;;0.51;85.58;101270.48;107131;1260;67648;-40
2023/01/23 04:30:06;;;;;;;17.30;10.70;;;;;;;0.53;85.58;101269.02;107049;1263;71940;-40
2023/01/23 04:32:33;;;;;;;14.20;9.80;;;;;;;0.60;85.71;101269.88;107064;1260;59782;-40
2023/01/23 04:35:01;;;;;;;17.30;10.60;;;;;;;0.63;85.82;101267.88;107064;1259;59665;-40
2023/01/23 04:37:28;;;;;;;15.70;8.80;;;;;;;0.62;85.69;101264.88;107060;1258;71072;-40
2023/01/23 04:39:56;;;;;;;13.70;8.80;;;;;;;0.56;85.42;101265.98;107059;1263;71084;-40
2023/01/23 04:42:23;;;;;;;12.00;7.60;;;;;;;0.57;85.24;101270.24;107117;1260;74009;-40
2023/01/23 04:44:59;;;;;;;9.90;7.20;;;;;;;0.59;84.63;101268.88;107025;1260;60428;-40
2023/01/23 04:47:45;;;;;;;9.00;6.80;;;;;;;0.56;84.46;101275.73;107039;1259;62528;-40
2023/01/23 04:50:13;;;;;;;9.90;6.90;;;;;;;0.51;84.17;101278.23;107053;1260;72428;-40
2023/01/23 04:52:42;;;;;;;9.70;6.00;;;;;;;0.48;84.03;101278.73;107058;1260;68535;-40
2023/01/23 04:55:10;;;;;;;10.70;6.40;;;;;;;0.50;83.82;101285.10;107040;1260;73706;-40
2023/01/23 04:57:37;;;;;;;8.90;6.60;;;;;;;0.48;83.77;101287.73;107035;1260;60526;-40
2023/01/23 05:00:12;;;;;;;10.30;7.00;;;;;;;0.43;84.07;101291.52;107064;1260;60349;-40
2023/01/23 05:02:40;;;;;;;9.10;6.40;;;;;;;0.43;84.07;101294.45;107104;1260;72887;-40
2023/01/23 05:05:07;;;;;;;8.60;6.40;;;;;;;0.50;84.35;101298.02;107066;1260;69490;-40
2023/01/23 05:07:36;;;;;;;8.70;5.60;;;;;;;0.54;84.41;101295.09;107112;1259;71323;-41
2023/01/23 05:10:06;;;;;;;;;;;;;;;0.56;84.21;101299.17;107112;1262;60319;-40
2023/01/23 05:12:34;;;;;;;7.50;5.70;;;;;;;0.52;84.19;101299.86;107080;1259;62379;-40
2023/01/23 05:15:01;;;;;;;9.20;6.70;;;;;;;0.51;83.92;101299.89;107291;1258;73120;-40
2023/01/23 05:17:28;;;;;;;12.30;7.00;;;;;;;0.50;83.94;101300.77;107065;1262;67741;-40
2023/01/23 05:19:56;;;;;;;11.80;7.20;;;;;;;0.44;84.01;101304.66;107060;1258;74385;-40
2023/01/23 05:22:23;;;;;;;11.70;7.30;;;;;;;0.37;84.22;101310.70;107164;1260;63265;-38
2023/01/23 05:24:50;;;;;;;10.50;7.10;;;;;;;0.38;84.44;101315.02;107035;1259;60833;-39
2023/01/23 05:27:18;;;;;;;12.00;7.40;;;;;;;0.41;84.66;101313.16;107246;1257;72612;-39
2023/01/23 05:29:46;;;;;;;13.20;7.80;;;;;;;0.41;85.00;101313.27;107047;1262;68407;-39
2023/01/23 05:32:18;;;;;;;9.50;6.50;;;;;;;0.40;84.89;101313.71;107025;1262;73054;-40
2023/01/23 05:35:01;;;;;;;9.70;6.70;;;;;;;0.42;84.74;101312.10;107060;1262;60427;-39
2023/01/23 05:37:29;;;;;;;10.80;6.70;;;;;;;0.46;84.67;101313.77;107073;1262;60395;-40
2023/01/23 05:40:03;;;;;;;10.90;7.80;;;;;;;0.48;84.66;101319.01;107071;1258;73006;-40
2023/01/23 05:42:50;;;;;;;12.20;7.40;;;;;;;0.49;84.74;101325.16;107031;1258;69477;-39
2023/01/23 05:45:46;;;;;;;8.30;6.10;;;;;;;0.54;84.73;101329.45;106761;1265;72178;-40
2023/01/23 05:48:22;;;;;;;13.90;7.10;;;;;;;0.65;84.73;101327.52;107047;1260;60430;-39
2023/01/23 05:50:49;;;;;;;10.80;6.70;;;;;;;0.71;84.65;101329.70;107063;1258;62006;-40
2023/01/23 05:53:18;;;;;;;10.80;7.30;;;;;;;0.75;84.37;101325.44;107091;1260;76127;-40
2023/01/23 05:55:45;;;;;;;12.00;7.70;;;;;;;0.75;83.83;101327.69;107029;1264;69238;-40
2023/01/23 05:58:13;;;;;;;14.40;6.70;;;;;;;0.74;83.87;101328.30;107049;1258;72072;-39
2023/01/23 06:01:13;;;;;;;10.20;6.90;;;;;;;0.78;83.46;101334.18;107056;1260;60555;-40
2023/01/23 06:03:58;;;;;;;11.60;6.60;;;;;;;0.85;83.55;101335.71;107081;1261;62598;-39
2023/01/23 06:06:33;;;;;;;12.40;7.00;;;;;;;0.92;83.54;101335.27;107073;1260;72636;-39
2023/01/23 06:09:00;;;;;;;10.40;7.20;;;;;;;0.95;83.60;101341.27;107112;1262;67470;-40
2023/01/23 06:11:30;;;;;;;13.50;7.10;;;;;;;0.99;83.55;101344.48;106917;1258;71806;-39
2023/01/23 12:40:16;;;;;;;8.60;5.70;;;;;;;1.29;83.77;101375.08;105067;1285;613493;-38
2023/01/23 12:43:10;;;;;;;8.60;5.90;;;;;;;1.70;81.28;101374.58;106379;1271;273072;-38
2023/01/23 12:45:41;;;;;;;8.20;5.60;;;;;;;1.53;81.08;101380.86;106648;1269;60821;-38
2023/01/23 12:48:31;;;;;;;10.20;6.50;;;;;;;1.50;80.64;101387.07;106594;1267;74723;-38
2023/01/23 12:51:05;;;;;;;10.90;6.60;;;;;;;1.44;79.53;101389.67;106640;1268;71460;-38
2023/01/23 12:53:36;;;;;;;9.60;6.20;;;;;;;1.32;79.49;101390.02;106620;1269;75051;-38
2023/01/23 12:56:14;;;;;;;12.70;6.90;;;;;;;1.24;79.53;101388.36;106718;1266;61773;-38
2023/01/23 12:58:58;;;;;;;11.80;6.30;;;;;;;1.15;79.47;101387.17;106659;1266;61722;-38
2023/01/23 13:02:10;;;;;;;9.90;6.10;;;;;;;1.08;79.47;101387.02;106724;1267;73184;-38
2023/01/23 13:05:04;;;;;;;10.00;6.50;;;;;;;0.98;79.64;101384.65;106358;1276;70449;-39
2023/01/23 13:07:36;;;;;;;12.30;6.30;;;;;;;0.85;79.79;101380.26;106433;1276;74078;-39
2023/01/23 13:10:25;;;;;;;12.10;6.50;;;;;;;0.76;80.00;101377.45;106587;1267;61092;-39
2023/01/23 13:12:53;;;;;;;11.10;6.70;;;;;;;0.75;80.25;101378.02;106718;1267;61700;-39
2023/01/23 13:15:23;;;;;;;10.60;6.20;;;;;;;0.70;80.12;101379.34;106578;1267;74144;-39
2023/01/23 13:18:13;;;;;;;10.80;6.40;;;;;;;0.67;80.89;101383.46;106629;1267;69477;-39
2023/01/23 13:23:43;;;;;;;12.80;6.40;;;;;;;0.65;80.79;101391.64;106590;1267;61524;-39
2023/01/23 13:26:21;;;;;;;11.70;6.70;;;;;;;0.63;81.07;101392.04;106493;1266;61416;-38
2023/01/23 13:28:56;;;;;;;11.70;7.00;;;;;;;0.64;81.39;101396.80;106632;1265;74576;-38
2023/01/23 13:31:45;;;;;;;12.50;7.10;;;;;;;0.61;81.82;101395.13;106688;1267;69942;-39
2023/01/23 13:34:16;;;;;;;;;;;;;;;0.66;81.90;101392.89;106608;1269;73989;-38
2023/01/23 13:36:44;;;;;;;13.40;7.30;;;;;;;0.69;82.19;101391.70;106744;1270;60633;-38
2023/01/23 13:39:15;;;;;;;15.80;8.00;;;;;;;0.73;82.68;101390.38;106799;1269;59798;-39
2023/01/23 13:41:43;;;;;;;12.90;7.80;;;;;;;0.83;82.52;101390.00;106661;1266;74554;-39
2023/01/23 18:24:54;;;;;;;22.70;14.30;;;;;;;0.61;84.65;101441.98;104947;1282;612759;-38
2023/01/23 18:27:24;;;;;;;27.60;14.80;;;;;;;1.09;82.54;101443.94;106672;1257;525391;-38
2023/01/23 18:30:02;;;;;;;26.80;14.00;;;;;;;0.99;82.07;101447.58;107098;1257;61512;-41
2023/01/23 18:32:53;;;;;;;24.30;13.10;;;;;;;0.90;81.74;101448.73;107222;1257;73457;-39
2023/01/23 18:35:24;;;;;;;27.30;15.20;;;;;;;0.90;80.89;101449.58;107346;1257;70029;-40
2023/01/23 18:38:12;;;;;;;27.20;14.20;;;;;;;0.86;80.79;101446.28;107254;1257;73901;-39
2023/01/23 18:41:07;;;;;;;23.00;14.30;;;;;;;0.84;80.66;101439.93;107204;1257;60206;-40
2023/01/23 18:43:42;;;;;;;26.10;13.90;;;;;;;0.77;80.11;101438.02;107255;1257;59100;-40
2023/01/23 18:46:17;;;;;;;24.80;14.00;;;;;;;0.71;80.26;101442.30;107301;1257;72296;-39
2023/01/23 18:48:46;;;;;;;24.10;14.90;;;;;;;0.75;80.10;101438.67;107272;1257;69638;-40
2023/01/23 18:51:33;;;;;;;24.20;13.90;;;;;;;0.83;80.00;101441.68;107300;1257;73898;-39
2023/01/23 18:54:04;;;;;;;26.10;14.70;;;;;;;0.84;79.67;101447.19;107255;1257;60015;-40
2023/01/23 18:57:11;;;;;;;25.60;15.20;;;;;;;0.80;79.21;101446.59;107258;1257;61538;-40
2023/01/23 18:59:49;;;;;;;26.80;14.70;;;;;;;0.75;79.39;101446.67;107279;1257;72111;-40
2023/01/23 19:02:51;;;;;;;24.70;14.10;;;;;;;0.69;79.44;101445.02;107198;1257;69678;-40
2023/01/23 19:05:28;;;;;;;24.40;13.80;;;;;;;0.75;79.54;101445.98;107273;1257;73690;-40
2023/01/23 19:07:58;;;;;;;24.10;14.10;;;;;;;0.80;79.33;101447.20;107251;1257;60477;-40
2023/01/23 19:10:29;;;;;;;25.10;14.10;;;;;;;0.83;78.99;101448.73;107290;1257;61224;-40
2023/01/23 19:13:38;;;;;;;23.80;14.10;;;;;;;0.77;78.72;101447.58;107246;1257;72011;-40
2023/01/23 19:16:16;;;;;;;28.40;15.40;;;;;;;0.72;78.93;101449.09;107258;1257;69909;-40
2023/01/23 19:19:11;;;;;;;25.60;14.00;;;;;;;0.68;79.10;101450.04;107097;1257;73862;-41
2023/01/23 19:21:45;;;;;;;27.00;14.70;;;;;;;0.70;78.78;101450.41;107203;1257;61608;-40
2023/01/23 19:24:20;;;;;;;24.80;13.90;;;;;;;0.73;78.77;101444.42;107097;1257;61524;-39
2023/01/23 19:26:49;;;;;;;23.90;15.00;;;;;;;0.74;78.74;101446.45;107201;1260;71953;-39
2023/01/23 19:29:18;;;;;;;28.60;16.20;;;;;;;0.75;78.95;101440.64;107342;1257;68741;-39
2023/01/23 19:31:50;;;;;;;27.10;14.90;;;;;;;0.77;79.13;101441.85;107250;1257;73890;-39
2023/01/23 19:34:37;;;;;;;25.50;14.80;;;;;;;0.80;79.01;101443.83;106502;1257;1002883;-40
2023/01/23 19:37:06;;;;;;;20.40;13.60;;;;;;;0.80;78.76;101428.77;107285;1257;61371;-39
2023/01/23 19:39:35;;;;;;;25.30;14.50;;;;;;;0.92;78.31;101441.39;107259;1257;74196;-39
2023/01/23 19:42:04;;;;;;;24.30;14.80;;;;;;;0.93;78.45;101444.45;107280;1257;70223;-39
2023/01/23 19:44:32;;;;;;;24.20;14.20;;;;;;;0.93;78.55;101441.83;107309;1257;73981;-40
2023/01/23 19:47:02;;;;;;;24.50;15.40;;;;;;;0.95;78.22;101441.00;107294;1257;60620;-40
2023/01/23 19:49:30;;;;;;;;;;;;;;;0.91;77.95;101441.27;107341;1257;62513;-39
2023/01/23 19:52:00;;;;;;;25.50;14.70;;;;;;;0.89;78.09;101435.91;107332;1257;74375;-40
2023/01/23 19:54:30;;;;;;;25.30;14.10;;;;;;;0.91;77.98;101438.55;107322;1257;70214;-40
2023/01/23 19:56:58;;;;;;;27.50;15.00;;;;;;;0.97;78.28;101438.10;107276;1257;73885;-39
2023/01/23 19:59:27;;;;;;;29.80;15.20;;;;;;;1.02;78.14;101440.20;107301;1258;60761;-39
2023/01/23 20:01:58;;;;;;;29.70;16.20;;;;;;;1.00;77.89;101439.70;107270;1257;61622;-39
2023/01/23 20:04:27;;;;;;;30.30;16.40;;;;;;;1.01;77.93;101444.77;107245;1257;74234;-40
2023/01/23 20:06:56;;;;;;;27.20;15.30;;;;;;;1.05;77.93;101442.53;107290;1257;69917;-40
2023/01/23 20:09:24;;;;;;;22.00;12.30;;;;;;;1.10;77.87;101440.80;105771;1257;1003473;-40
2023/01/23 20:11:56;;;;;;;28.10;15.40;;;;;;;1.21;77.62;101440.69;107305;1260;60549;-40
2023/01/23 20:14:26;;;;;;;27.80;16.30;;;;;;;1.25;77.35;101441.33;107280;1257;61494;-40
2023/01/23 20:16:55;;;;;;;28.10;16.20;;;;;;;1.25;77.10;101444.65;107300;1257;71884;-40
2023/01/23 20:19:24;;;;;;;25.60;15.70;;;;;;;1.21;76.93;101446.94;107290;1257;69902;-40
2023/01/23 20:21:52;;;;;;;28.60;16.60;;;;;;;1.17;77.04;101447.09;107263;1257;73907;-40
2023/01/23 20:24:20;;;;;;;31.00;17.20;;;;;;;1.15;76.99;101449.95;107196;1257;60792;-40
2023/01/23 20:26:49;;;;;;;28.00;16.10;;;;;;;1.15;77.16;101449.48;107284;1257;61298;-40
2023/01/23 20:29:17;;;;;;;28.10;16.10;;;;;;;1.22;77.13;101447.98;107290;1257;74060;-40
2023/01/23 20:31:46;;;;;;;27.30;15.50;;;;;;;1.25;76.81;101451.53;107188;1257;68973;-40
2023/01/23 20:34:14;;;;;;;32.10;16.10;;;;;;;1.25;76.85;101447.80;107204;1260;73554;-40
2023/01/23 20:36:43;;;;;;;25.40;15.40;;;;;;;1.25;76.81;101449.45;107207;1257;60300;-40
2023/01/23 20:39:12;;;;;;;29.30;16.10;;;;;;;1.23;76.58;101450.16;107230;1257;59841;-40
2023/01/23 20:41:40;;;;;;;25.40;15.30;;;;;;;1.19;76.47;101452.20;107155;1257;74205;-40
2023/01/23 20:44:11;;;;;;;22.60;13.30;;;;;;;1.17;76.57;101448.59;107213;1257;68404;-40
2023/01/23 20:46:40;;;;;;;;;;;;;;;1.22;76.40;101451.29;107237;1258;74971;-40
2023/01/23 20:49:12;;;;;;;24.50;14.50;;;;;;;1.19;76.51;101450.27;107244;1257;60030;-40
2023/01/23 20:51:40;;;;;;;26.10;15.00;;;;;;;1.16;77.00;101447.94;107291;1257;61509;-40
2023/01/23 20:54:09;;;;;;;30.30;15.70;;;;;;;1.20;76.72;101452.91;107266;1257;74211;-40
2023/01/23 20:56:37;;;;;;;27.60;15.00;;;;;;;1.23;76.50;101444.30;107279;1257;69907;-40
2023/01/23 20:59:21;;;;;;;31.10;15.20;;;;;;;1.20;76.20;101443.58;107238;1257;74106;-40
2023/01/23 21:04:39;;;;;;;28.70;15.20;;;;;;;1.13;75.94;101429.88;107224;1256;60459;-40
2023/01/23 21:07:07;;;;;;;27.30;15.30;;;;;;;1.17;76.29;101446.73;107301;1257;74253;-40
2023/01/23 21:09:36;;;;;;;24.90;15.50;;;;;;;1.18;76.25;101444.91;107240;1257;68940;-40
2023/01/23 21:12:05;;;;;;;28.60;15.50;;;;;;;1.11;76.11;101442.42;106519;1257;1002483;-40
2023/01/23 21:14:36;;;;;;;23.50;14.80;;;;;;;1.03;76.00;101439.63;107252;1257;62100;-40
2023/01/23 21:17:04;;;;;;;26.50;15.50;;;;;;;1.03;76.43;101439.84;107229;1257;61518;-40
2023/01/23 21:19:35;;;;;;;24.50;13.90;;;;;;;1.09;76.44;101435.61;107181;1257;73744;-40
2023/01/23 21:22:04;;;;;;;26.60;14.70;;;;;;;1.12;76.36;101437.35;107231;1257;69928;-40
2023/01/23 21:24:33;;;;;;;26.80;16.20;;;;;;;1.15;76.63;101439.52;107295;1257;71880;-40
2023/01/23 21:27:03;;;;;;;28.20;16.00;;;;;;;1.15;76.58;101438.31;107275;1257;59567;-40
2023/01/23 21:29:32;;;;;;;27.30;16.10;;;;;;;1.16;76.54;101440.30;107279;1257;61205;-40
2023/01/23 21:32:00;;;;;;;27.70;16.70;;;;;;;1.15;76.65;101440.02;107213;1257;74171;-40
2023/01/23 21:34:29;;;;;;;27.90;14.60;;;;;;;1.20;76.42;101435.76;107222;1261;69970;-40
2023/01/23 21:36:58;;;;;;;33.90;16.10;;;;;;;1.30;76.08;101434.88;107219;1257;73860;-40
